sensor_id;sensor_type;location;lat;lon;timestamp;temperature;humidity
65378;SHT31;51982;51.042;13.806;2022-11-15T00:01:29;9.79;89.13
65378;SHT31;51982;51.042;13.806;2022-11-15T00:03:54;9.77;89.14
65378;SHT31;51982;51.042;13.806;2022-11-15T00:06:19;9.79;89.14
65378;SHT31;51982;51.042;13.806;2022-11-15T00:08:45;9.73;89.34
65378;SHT31;51982;51.042;13.806;2022-11-15T00:11:11;9.73;89.29
65378;SHT31;51982;51.042;13.806;2022-11-15T00:13:37;9.73;89.36
65378;SHT31;51982;51.042;13.806;2022-11-15T00:16:03;9.72;89.37
65378;SHT31;51982;51.042;13.806;2022-11-15T00:18:29;9.72;89.36
65378;SHT31;51982;51.042;13.806;2022-11-15T00:20:55;9.70;89.39
65378;SHT31;51982;51.042;13.806;2022-11-15T00:23:20;9.69;89.35
65378;SHT31;51982;51.042;13.806;2022-11-15T00:25:46;9.72;89.28
65378;SHT31;51982;51.042;13.806;2022-11-15T00:28:11;9.70;89.36
65378;SHT31;51982;51.042;13.806;2022-11-15T00:30:36;9.70;89.37
65378;SHT31;51982;51.042;13.806;2022-11-15T00:33:05;9.69;89.39
65378;SHT31;51982;51.042;13.806;2022-11-15T00:35:32;9.63;89.57
65378;SHT31;51982;51.042;13.806;2022-11-15T00:38:01;9.65;89.54
65378;SHT31;51982;51.042;13.806;2022-11-15T00:40:27;9.67;89.41
65378;SHT31;51982;51.042;13.806;2022-11-15T00:42:52;9.67;89.38
65378;SHT31;51982;51.042;13.806;2022-11-15T00:45:17;9.65;89.40
65378;SHT31;51982;51.042;13.806;2022-11-15T00:47:46;9.66;89.36
65378;SHT31;51982;51.042;13.806;2022-11-15T00:50:12;9.62;89.45
65378;SHT31;51982;51.042;13.806;2022-11-15T00:52:38;9.63;89.50
65378;SHT31;51982;51.042;13.806;2022-11-15T00:55:03;9.59;89.57
65378;SHT31;51982;51.042;13.806;2022-11-15T00:57:29;9.59;89.66
65378;SHT31;51982;51.042;13.806;2022-11-15T00:59:54;9.60;89.66
65378;SHT31;51982;51.042;13.806;2022-11-15T01:02:19;9.57;89.64
65378;SHT31;51982;51.042;13.806;2022-11-15T01:04:44;9.57;89.56
65378;SHT31;51982;51.042;13.806;2022-11-15T01:07:10;9.60;89.57
65378;SHT31;51982;51.042;13.806;2022-11-15T01:09:35;9.56;89.54
65378;SHT31;51982;51.042;13.806;2022-11-15T01:12:00;9.59;89.60
65378;SHT31;51982;51.042;13.806;2022-11-15T01:14:26;9.56;89.73
65378;SHT31;51982;51.042;13.806;2022-11-15T01:16:51;9.57;89.74
65378;SHT31;51982;51.042;13.806;2022-11-15T01:19:16;9.57;89.62
65378;SHT31;51982;51.042;13.806;2022-11-15T01:21:42;9.56;89.67
65378;SHT31;51982;51.042;13.806;2022-11-15T01:24:11;9.56;89.53
65378;SHT31;51982;51.042;13.806;2022-11-15T01:26:37;9.55;89.58
65378;SHT31;51982;51.042;13.806;2022-11-15T01:29:03;9.55;89.82
65378;SHT31;51982;51.042;13.806;2022-11-15T01:31:28;9.55;89.83
65378;SHT31;51982;51.042;13.806;2022-11-15T01:33:53;9.53;89.93
65378;SHT31;51982;51.042;13.806;2022-11-15T01:36:21;9.55;89.74
65378;SHT31;51982;51.042;13.806;2022-11-15T01:38:56;9.57;89.72
65378;SHT31;51982;51.042;13.806;2022-11-15T01:41:24;9.55;89.68
65378;SHT31;51982;51.042;13.806;2022-11-15T01:43:55;9.53;89.72
65378;SHT31;51982;51.042;13.806;2022-11-15T01:48:46;9.52;89.88
65378;SHT31;51982;51.042;13.806;2022-11-15T01:51:13;9.50;90.07
65378;SHT31;51982;51.042;13.806;2022-11-15T01:53:45;9.52;89.88
65378;SHT31;51982;51.042;13.806;2022-11-15T01:56:14;9.52;89.88
65378;SHT31;51982;51.042;13.806;2022-11-15T01:58:41;9.53;89.92
65378;SHT31;51982;51.042;13.806;2022-11-15T02:01:08;9.49;89.93
65378;SHT31;51982;51.042;13.806;2022-11-15T02:03:50;9.49;89.84
65378;SHT31;51982;51.042;13.806;2022-11-15T02:06:17;9.52;89.92
65378;SHT31;51982;51.042;13.806;2022-11-15T02:08:43;9.47;90.04
65378;SHT31;51982;51.042;13.806;2022-11-15T02:11:09;9.47;90.01
65378;SHT31;51982;51.042;13.806;2022-11-15T02:13:35;9.47;89.99
65378;SHT31;51982;51.042;13.806;2022-11-15T02:16:28;9.49;89.85
65378;SHT31;51982;51.042;13.806;2022-11-15T02:19:06;9.45;89.95
65378;SHT31;51982;51.042;13.806;2022-11-15T02:22:00;9.43;90.01
65378;SHT31;51982;51.042;13.806;2022-11-15T02:24:51;9.46;89.89
65378;SHT31;51982;51.042;13.806;2022-11-15T02:32:59;9.43;90.06
65378;SHT31;51982;51.042;13.806;2022-11-15T02:35:48;9.43;90.01
65378;SHT31;51982;51.042;13.806;2022-11-15T02:38:27;9.45;90.10
65378;SHT31;51982;51.042;13.806;2022-11-15T02:41:02;9.42;89.99
65378;SHT31;51982;51.042;13.806;2022-11-15T02:43:33;9.40;89.94
65378;SHT31;51982;51.042;13.806;2022-11-15T02:49:16;9.39;90.08
65378;SHT31;51982;51.042;13.806;2022-11-15T02:51:42;9.40;89.97
65378;SHT31;51982;51.042;13.806;2022-11-15T02:54:14;9.36;89.99
65378;SHT31;51982;51.042;13.806;2022-11-15T02:56:42;9.38;89.96
65378;SHT31;51982;51.042;13.806;2022-11-15T02:59:20;9.38;89.77
65378;SHT31;51982;51.042;13.806;2022-11-15T03:05:17;9.39;89.68
65378;SHT31;51982;51.042;13.806;2022-11-15T03:07:53;9.38;89.60
65378;SHT31;51982;51.042;13.806;2022-11-15T03:13:19;9.39;89.67
65378;SHT31;51982;51.042;13.806;2022-11-15T03:15:58;9.38;89.70
65378;SHT31;51982;51.042;13.806;2022-11-15T03:18:32;9.38;89.61
65378;SHT31;51982;51.042;13.806;2022-11-15T03:21:00;9.38;89.68
65378;SHT31;51982;51.042;13.806;2022-11-15T03:23:28;9.35;89.73
65378;SHT31;51982;51.042;13.806;2022-11-15T03:25:56;9.35;89.69
65378;SHT31;51982;51.042;13.806;2022-11-15T03:28:32;9.35;89.63
65378;SHT31;51982;51.042;13.806;2022-11-15T03:31:00;9.38;89.64
65378;SHT31;51982;51.042;13.806;2022-11-15T03:33:47;9.38;89.63
65378;SHT31;51982;51.042;13.806;2022-11-15T03:36:14;9.38;89.62
65378;SHT31;51982;51.042;13.806;2022-11-15T03:38:41;9.36;89.58
65378;SHT31;51982;51.042;13.806;2022-11-15T03:41:15;9.35;89.63
65378;SHT31;51982;51.042;13.806;2022-11-15T03:46:40;9.35;89.63
65378;SHT31;51982;51.042;13.806;2022-11-15T03:49:11;9.32;89.56
65378;SHT31;51982;51.042;13.806;2022-11-15T03:51:38;9.35;89.60
65378;SHT31;51982;51.042;13.806;2022-11-15T03:54:04;9.34;89.62
65378;SHT31;51982;51.042;13.806;2022-11-15T03:56:29;9.34;89.65
65378;SHT31;51982;51.042;13.806;2022-11-15T03:58:55;9.31;89.70
65378;SHT31;51982;51.042;13.806;2022-11-15T04:01:20;9.32;89.66
65378;SHT31;51982;51.042;13.806;2022-11-15T04:03:45;9.31;89.71
65378;SHT31;51982;51.042;13.806;2022-11-15T04:06:11;9.29;89.74
65378;SHT31;51982;51.042;13.806;2022-11-15T04:08:36;9.34;89.69
65378;SHT31;51982;51.042;13.806;2022-11-15T04:11:01;9.31;89.64
65378;SHT31;51982;51.042;13.806;2022-11-15T04:13:26;9.31;89.65
65378;SHT31;51982;51.042;13.806;2022-11-15T04:15:52;9.28;89.72
65378;SHT31;51982;51.042;13.806;2022-11-15T04:18:17;9.29;89.66
65378;SHT31;51982;51.042;13.806;2022-11-15T04:20:42;9.31;89.65
65378;SHT31;51982;51.042;13.806;2022-11-15T04:23:26;9.31;89.59
65378;SHT31;51982;51.042;13.806;2022-11-15T04:26:19;9.31;89.48
65378;SHT31;51982;51.042;13.806;2022-11-15T04:28:45;9.28;89.57
65378;SHT31;51982;51.042;13.806;2022-11-15T04:31:29;9.28;89.64
65378;SHT31;51982;51.042;13.806;2022-11-15T04:33:54;9.26;89.69
65378;SHT31;51982;51.042;13.806;2022-11-15T04:36:20;9.28;89.70
65378;SHT31;51982;51.042;13.806;2022-11-15T04:39:04;9.29;89.64
65378;SHT31;51982;51.042;13.806;2022-11-15T04:41:30;9.28;89.63
65378;SHT31;51982;51.042;13.806;2022-11-15T04:43:55;9.28;89.58
65378;SHT31;51982;51.042;13.806;2022-11-15T04:46:21;9.29;89.62
65378;SHT31;51982;51.042;13.806;2022-11-15T04:48:47;9.29;89.69
65378;SHT31;51982;51.042;13.806;2022-11-15T04:51:12;9.31;89.56
65378;SHT31;51982;51.042;13.806;2022-11-15T04:53:37;9.32;89.53
65378;SHT31;51982;51.042;13.806;2022-11-15T04:56:03;9.31;89.49
65378;SHT31;51982;51.042;13.806;2022-11-15T04:58:28;9.26;89.54
65378;SHT31;51982;51.042;13.806;2022-11-15T05:00:53;9.26;89.56
65378;SHT31;51982;51.042;13.806;2022-11-15T05:03:19;9.25;89.59
65378;SHT31;51982;51.042;13.806;2022-11-15T05:06:02;9.26;89.61
65378;SHT31;51982;51.042;13.806;2022-11-15T05:08:27;9.24;89.57
65378;SHT31;51982;51.042;13.806;2022-11-15T05:10:53;9.22;89.66
65378;SHT31;51982;51.042;13.806;2022-11-15T05:13:18;9.21;89.62
65378;SHT31;51982;51.042;13.806;2022-11-15T05:15:43;9.24;89.66
65378;SHT31;51982;51.042;13.806;2022-11-15T05:18:09;9.19;89.72
65378;SHT31;51982;51.042;13.806;2022-11-15T05:20:34;9.21;89.72
65378;SHT31;51982;51.042;13.806;2022-11-15T05:22:59;9.21;89.62
65378;SHT31;51982;51.042;13.806;2022-11-15T05:25:25;9.21;89.64
65378;SHT31;51982;51.042;13.806;2022-11-15T05:27:50;9.24;89.63
65378;SHT31;51982;51.042;13.806;2022-11-15T05:30:16;9.19;89.63
65378;SHT31;51982;51.042;13.806;2022-11-15T05:32:42;9.21;89.63
65378;SHT31;51982;51.042;13.806;2022-11-15T05:35:13;9.24;89.54
65378;SHT31;51982;51.042;13.806;2022-11-15T05:37:40;9.18;89.60
65378;SHT31;51982;51.042;13.806;2022-11-15T05:40:06;9.19;89.63
65378;SHT31;51982;51.042;13.806;2022-11-15T05:42:31;9.16;89.65
65378;SHT31;51982;51.042;13.806;2022-11-15T05:44:58;9.15;89.63
65378;SHT31;51982;51.042;13.806;2022-11-15T05:47:26;9.16;89.63
65378;SHT31;51982;51.042;13.806;2022-11-15T05:49:54;9.14;89.62
65378;SHT31;51982;51.042;13.806;2022-11-15T05:52:24;9.15;89.51
65378;SHT31;51982;51.042;13.806;2022-11-15T05:54:51;9.15;89.59
65378;SHT31;51982;51.042;13.806;2022-11-15T05:57:17;9.12;89.58
65378;SHT31;51982;51.042;13.806;2022-11-15T05:59:42;9.14;89.63
65378;SHT31;51982;51.042;13.806;2022-11-15T06:02:09;9.11;89.64
65378;SHT31;51982;51.042;13.806;2022-11-15T06:04:35;9.11;89.68
65378;SHT31;51982;51.042;13.806;2022-11-15T06:07:00;9.11;89.72
65378;SHT31;51982;51.042;13.806;2022-11-15T06:09:25;9.14;89.73
65378;SHT31;51982;51.042;13.806;2022-11-15T06:11:51;9.14;89.71
65378;SHT31;51982;51.042;13.806;2022-11-15T06:14:16;9.14;89.74
65378;SHT31;51982;51.042;13.806;2022-11-15T06:16:41;9.15;89.76
65378;SHT31;51982;51.042;13.806;2022-11-15T06:19:07;9.16;89.71
65378;SHT31;51982;51.042;13.806;2022-11-15T06:21:34;9.14;89.76
65378;SHT31;51982;51.042;13.806;2022-11-15T06:23:59;9.15;89.75
65378;SHT31;51982;51.042;13.806;2022-11-15T06:26:25;9.15;89.69
65378;SHT31;51982;51.042;13.806;2022-11-15T06:28:50;9.15;89.76
65378;SHT31;51982;51.042;13.806;2022-11-15T06:31:15;9.18;89.67
65378;SHT31;51982;51.042;13.806;2022-11-15T06:33:40;9.19;89.67
65378;SHT31;51982;51.042;13.806;2022-11-15T06:36:09;9.19;89.57
65378;SHT31;51982;51.042;13.806;2022-11-15T06:38:34;9.19;89.57
65378;SHT31;51982;51.042;13.806;2022-11-15T06:41:04;9.21;89.50
65378;SHT31;51982;51.042;13.806;2022-11-15T06:43:30;9.24;89.52
65378;SHT31;51982;51.042;13.806;2022-11-15T06:45:58;9.25;89.49
65378;SHT31;51982;51.042;13.806;2022-11-15T06:48:23;9.22;89.46
65378;SHT31;51982;51.042;13.806;2022-11-15T06:50:53;9.22;89.44
65378;SHT31;51982;51.042;13.806;2022-11-15T06:53:18;9.24;89.46
65378;SHT31;51982;51.042;13.806;2022-11-15T06:55:44;9.26;89.45
65378;SHT31;51982;51.042;13.806;2022-11-15T06:58:09;9.31;89.40
65378;SHT31;51982;51.042;13.806;2022-11-15T07:00:34;9.31;89.35
65378;SHT31;51982;51.042;13.806;2022-11-15T07:03:00;9.34;89.24
65378;SHT31;51982;51.042;13.806;2022-11-15T07:05:26;9.34;89.24
65378;SHT31;51982;51.042;13.806;2022-11-15T07:07:53;9.36;89.22
65378;SHT31;51982;51.042;13.806;2022-11-15T07:10:18;9.36;89.26
65378;SHT31;51982;51.042;13.806;2022-11-15T07:12:47;9.38;89.19
65378;SHT31;51982;51.042;13.806;2022-11-15T07:15:12;9.39;89.17
65378;SHT31;51982;51.042;13.806;2022-11-15T07:17:38;9.43;89.13
65378;SHT31;51982;51.042;13.806;2022-11-15T07:20:03;9.45;89.10
65378;SHT31;51982;51.042;13.806;2022-11-15T07:22:29;9.45;89.14
65378;SHT31;51982;51.042;13.806;2022-11-15T07:24:54;9.49;89.05
65378;SHT31;51982;51.042;13.806;2022-11-15T07:27:19;9.49;89.07
65378;SHT31;51982;51.042;13.806;2022-11-15T07:29:44;9.52;89.06
65378;SHT31;51982;51.042;13.806;2022-11-15T07:32:10;9.53;89.02
65378;SHT31;51982;51.042;13.806;2022-11-15T07:34:35;9.53;88.95
65378;SHT31;51982;51.042;13.806;2022-11-15T07:37:00;9.57;88.88
65378;SHT31;51982;51.042;13.806;2022-11-15T07:39:25;9.62;88.75
65378;SHT31;51982;51.042;13.806;2022-11-15T07:41:51;9.65;88.70
65378;SHT31;51982;51.042;13.806;2022-11-15T07:44:36;9.65;88.63
65378;SHT31;51982;51.042;13.806;2022-11-15T07:47:01;9.67;88.56
65378;SHT31;51982;51.042;13.806;2022-11-15T07:49:26;9.69;88.43
65378;SHT31;51982;51.042;13.806;2022-11-15T07:51:51;9.72;88.42
65378;SHT31;51982;51.042;13.806;2022-11-15T07:54:17;9.75;88.34
65378;SHT31;51982;51.042;13.806;2022-11-15T07:56:42;9.76;88.39
65378;SHT31;51982;51.042;13.806;2022-11-15T07:59:08;9.76;88.27
65378;SHT31;51982;51.042;13.806;2022-11-15T08:01:34;9.80;88.33
65378;SHT31;51982;51.042;13.806;2022-11-15T08:04:01;9.82;88.28
65378;SHT31;51982;51.042;13.806;2022-11-15T08:06:26;9.85;88.18
65378;SHT31;51982;51.042;13.806;2022-11-15T08:08:52;9.85;88.05
65378;SHT31;51982;51.042;13.806;2022-11-15T08:11:17;9.90;88.00
65378;SHT31;51982;51.042;13.806;2022-11-15T08:13:42;9.93;87.95
65378;SHT31;51982;51.042;13.806;2022-11-15T08:16:07;9.90;88.02
65378;SHT31;51982;51.042;13.806;2022-11-15T08:18:33;9.96;87.86
65378;SHT31;51982;51.042;13.806;2022-11-15T08:20:59;10.00;87.88
65378;SHT31;51982;51.042;13.806;2022-11-15T08:23:25;10.00;87.88
65378;SHT31;51982;51.042;13.806;2022-11-15T08:25:50;10.00;87.75
65378;SHT31;51982;51.042;13.806;2022-11-15T08:28:16;10.04;87.70
65378;SHT31;51982;51.042;13.806;2022-11-15T08:30:42;10.07;87.61
65378;SHT31;51982;51.042;13.806;2022-11-15T08:33:12;10.08;87.61
65378;SHT31;51982;51.042;13.806;2022-11-15T08:35:39;10.13;87.56
65378;SHT31;51982;51.042;13.806;2022-11-15T08:38:05;10.16;87.51
65378;SHT31;51982;51.042;13.806;2022-11-15T08:40:30;10.17;87.40
65378;SHT31;51982;51.042;13.806;2022-11-15T08:42:55;10.22;87.41
65378;SHT31;51982;51.042;13.806;2022-11-15T08:45:21;10.25;87.42
65378;SHT31;51982;51.042;13.806;2022-11-15T08:47:46;10.28;87.39
65378;SHT31;51982;51.042;13.806;2022-11-15T08:50:11;10.28;87.42
65378;SHT31;51982;51.042;13.806;2022-11-15T08:52:37;10.33;87.41
65378;SHT31;51982;51.042;13.806;2022-11-15T08:55:02;10.36;87.40
65378;SHT31;51982;51.042;13.806;2022-11-15T08:57:30;10.37;87.42
65378;SHT31;51982;51.042;13.806;2022-11-15T08:59:56;10.40;87.40
65378;SHT31;51982;51.042;13.806;2022-11-15T09:02:22;10.44;87.27
65378;SHT31;51982;51.042;13.806;2022-11-15T09:04:47;10.45;87.30
65378;SHT31;51982;51.042;13.806;2022-11-15T09:07:13;10.47;87.18
65378;SHT31;51982;51.042;13.806;2022-11-15T09:09:38;10.52;87.32
65378;SHT31;51982;51.042;13.806;2022-11-15T09:12:04;10.54;87.21
65378;SHT31;51982;51.042;13.806;2022-11-15T09:14:30;10.55;87.17
65378;SHT31;51982;51.042;13.806;2022-11-15T09:16:55;10.59;86.96
65378;SHT31;51982;51.042;13.806;2022-11-15T09:19:21;10.62;86.96
65378;SHT31;51982;51.042;13.806;2022-11-15T09:21:46;10.68;87.03
65378;SHT31;51982;51.042;13.806;2022-11-15T09:24:11;10.68;87.00
65378;SHT31;51982;51.042;13.806;2022-11-15T09:26:37;10.72;87.02
65378;SHT31;51982;51.042;13.806;2022-11-15T09:29:02;10.73;86.91
65378;SHT31;51982;51.042;13.806;2022-11-15T09:31:27;10.76;86.83
65378;SHT31;51982;51.042;13.806;2022-11-15T09:33:54;10.76;86.78
65378;SHT31;51982;51.042;13.806;2022-11-15T09:36:19;10.78;86.63
65378;SHT31;51982;51.042;13.806;2022-11-15T09:38:45;10.82;86.52
65378;SHT31;51982;51.042;13.806;2022-11-15T09:49:25;10.95;86.40
65378;SHT31;51982;51.042;13.806;2022-11-15T09:51:53;10.96;86.37
65378;SHT31;51982;51.042;13.806;2022-11-15T09:54:27;10.96;86.28
65378;SHT31;51982;51.042;13.806;2022-11-15T09:56:56;11.02;86.22
65378;SHT31;51982;51.042;13.806;2022-11-15T10:02:08;11.08;86.10
65378;SHT31;51982;51.042;13.806;2022-11-15T10:04:38;11.10;86.03
65378;SHT31;51982;51.042;13.806;2022-11-15T10:07:18;11.12;85.85
65378;SHT31;51982;51.042;13.806;2022-11-15T10:09:55;11.18;85.98
65378;SHT31;51982;51.042;13.806;2022-11-15T10:12:22;11.20;85.74
65378;SHT31;51982;51.042;13.806;2022-11-15T10:14:50;11.24;85.67
65378;SHT31;51982;51.042;13.806;2022-11-15T10:17:31;11.27;85.65
65378;SHT31;51982;51.042;13.806;2022-11-15T10:20:16;11.29;85.54
65378;SHT31;51982;51.042;13.806;2022-11-15T10:22:48;11.32;85.59
65378;SHT31;51982;51.042;13.806;2022-11-15T10:25:17;11.36;85.41
65378;SHT31;51982;51.042;13.806;2022-11-15T10:27:45;11.37;85.45
65378;SHT31;51982;51.042;13.806;2022-11-15T10:30:16;11.40;85.36
65378;SHT31;51982;51.042;13.806;2022-11-15T10:32:44;11.46;85.12
65378;SHT31;51982;51.042;13.806;2022-11-15T10:35:29;11.49;85.18
65378;SHT31;51982;51.042;13.806;2022-11-15T10:38:06;11.53;85.22
65378;SHT31;51982;51.042;13.806;2022-11-15T10:40:33;11.56;85.22
65378;SHT31;51982;51.042;13.806;2022-11-15T10:43:13;11.56;85.10
65378;SHT31;51982;51.042;13.806;2022-11-15T10:45:39;11.59;84.92
65378;SHT31;51982;51.042;13.806;2022-11-15T10:50:40;11.60;84.87
65378;SHT31;51982;51.042;13.806;2022-11-15T10:53:21;11.66;84.73
65378;SHT31;51982;51.042;13.806;2022-11-15T10:55:50;11.70;84.65
65378;SHT31;51982;51.042;13.806;2022-11-15T10:58:43;11.70;84.44
65378;SHT31;51982;51.042;13.806;2022-11-15T11:01:16;11.73;84.67
65378;SHT31;51982;51.042;13.806;2022-11-15T11:03:44;11.75;84.34
65378;SHT31;51982;51.042;13.806;2022-11-15T11:06:17;11.75;84.54
65378;SHT31;51982;51.042;13.806;2022-11-15T11:11:19;11.78;84.38
65378;SHT31;51982;51.042;13.806;2022-11-15T11:13:44;11.78;84.36
65378;SHT31;51982;51.042;13.806;2022-11-15T11:18:39;11.81;84.28
65378;SHT31;51982;51.042;13.806;2022-11-15T11:21:11;11.84;84.16
65378;SHT31;51982;51.042;13.806;2022-11-15T11:23:53;11.85;84.02
65378;SHT31;51982;51.042;13.806;2022-11-15T11:26:33;11.87;84.15
65378;SHT31;51982;51.042;13.806;2022-11-15T11:29:19;11.88;83.87
65378;SHT31;51982;51.042;13.806;2022-11-15T11:32:01;11.91;83.74
65378;SHT31;51982;51.042;13.806;2022-11-15T11:40:28;11.94;83.69
65378;SHT31;51982;51.042;13.806;2022-11-15T11:48:12;11.99;83.30
65378;SHT31;51982;51.042;13.806;2022-11-15T11:50:39;12.02;83.33
65378;SHT31;51982;51.042;13.806;2022-11-15T11:53:28;12.05;83.04
65378;SHT31;51982;51.042;13.806;2022-11-15T11:55:58;12.05;83.34
65378;SHT31;51982;51.042;13.806;2022-11-15T11:58:39;12.05;83.27
65378;SHT31;51982;51.042;13.806;2022-11-15T12:01:26;12.06;82.84
65378;SHT31;51982;51.042;13.806;2022-11-15T12:04:01;12.05;83.17
65378;SHT31;51982;51.042;13.806;2022-11-15T12:09:03;12.08;83.21
65378;SHT31;51982;51.042;13.806;2022-11-15T12:11:51;12.05;82.65
65378;SHT31;51982;51.042;13.806;2022-11-15T12:14:29;12.08;83.05
65378;SHT31;51982;51.042;13.806;2022-11-15T12:16:57;12.10;82.86
65378;SHT31;51982;51.042;13.806;2022-11-15T12:19:22;12.11;82.87
65378;SHT31;51982;51.042;13.806;2022-11-15T12:21:54;12.11;82.82
65378;SHT31;51982;51.042;13.806;2022-11-15T12:24:23;12.06;82.76
65378;SHT31;51982;51.042;13.806;2022-11-15T12:27:20;12.08;82.70
65378;SHT31;51982;51.042;13.806;2022-11-15T12:29:49;12.06;83.02
65378;SHT31;51982;51.042;13.806;2022-11-15T12:32:25;12.08;82.75
65378;SHT31;51982;51.042;13.806;2022-11-15T12:34:51;12.12;82.48
65378;SHT31;51982;51.042;13.806;2022-11-15T12:45:00;12.10;82.62
65378;SHT31;51982;51.042;13.806;2022-11-15T12:47:26;12.12;82.75
65378;SHT31;51982;51.042;13.806;2022-11-15T12:49:52;12.14;82.70
65378;SHT31;51982;51.042;13.806;2022-11-15T12:52:18;12.12;82.66
65378;SHT31;51982;51.042;13.806;2022-11-15T12:54:52;12.12;82.62
65378;SHT31;51982;51.042;13.806;2022-11-15T12:59:56;12.14;82.40
65378;SHT31;51982;51.042;13.806;2022-11-15T13:02:30;12.11;82.53
65378;SHT31;51982;51.042;13.806;2022-11-15T13:07:59;12.11;82.37
65378;SHT31;51982;51.042;13.806;2022-11-15T13:12:52;12.06;82.46
65378;SHT31;51982;51.042;13.806;2022-11-15T13:17:54;12.04;82.58
65378;SHT31;51982;51.042;13.806;2022-11-15T13:27:52;12.02;82.31
65378;SHT31;51982;51.042;13.806;2022-11-15T13:30:22;12.01;82.35
65378;SHT31;51982;51.042;13.806;2022-11-15T13:32:48;12.02;82.45
65378;SHT31;51982;51.042;13.806;2022-11-15T13:35:33;11.99;82.17
65378;SHT31;51982;51.042;13.806;2022-11-15T13:38:04;11.99;82.37
65378;SHT31;51982;51.042;13.806;2022-11-15T13:40:35;11.97;82.32
65378;SHT31;51982;51.042;13.806;2022-11-15T13:43:31;11.93;81.88
65378;SHT31;51982;51.042;13.806;2022-11-15T13:51:48;11.87;82.24
65378;SHT31;51982;51.042;13.806;2022-11-15T13:54:32;11.83;82.22
65378;SHT31;51982;51.042;13.806;2022-11-15T13:59:30;11.77;82.26
65378;SHT31;51982;51.042;13.806;2022-11-15T14:01:59;11.74;82.35
65378;SHT31;51982;51.042;13.806;2022-11-15T14:04:27;11.70;82.40
65378;SHT31;51982;51.042;13.806;2022-11-15T14:06:58;11.69;82.44
65378;SHT31;51982;51.042;13.806;2022-11-15T14:09:51;11.64;82.11
65378;SHT31;51982;51.042;13.806;2022-11-15T14:12:35;11.61;82.38
65378;SHT31;51982;51.042;13.806;2022-11-15T14:15:31;11.61;82.35
65378;SHT31;51982;51.042;13.806;2022-11-15T14:17:57;11.61;82.59
65378;SHT31;51982;51.042;13.806;2022-11-15T14:20:32;11.56;82.52
65378;SHT31;51982;51.042;13.806;2022-11-15T14:23:02;11.53;82.42
65378;SHT31;51982;51.042;13.806;2022-11-15T14:25:34;11.56;82.51
65378;SHT31;51982;51.042;13.806;2022-11-15T14:30:50;11.49;82.40
65378;SHT31;51982;51.042;13.806;2022-11-15T14:35:55;11.39;82.88
65378;SHT31;51982;51.042;13.806;2022-11-15T14:38:25;11.37;83.03
65378;SHT31;51982;51.042;13.806;2022-11-15T14:40:51;11.37;83.11
65378;SHT31;51982;51.042;13.806;2022-11-15T14:43:16;11.33;82.84
65378;SHT31;51982;51.042;13.806;2022-11-15T14:45:41;11.29;82.82
65378;SHT31;51982;51.042;13.806;2022-11-15T14:48:07;11.23;82.90
65378;SHT31;51982;51.042;13.806;2022-11-15T14:50:35;11.23;82.85
65378;SHT31;51982;51.042;13.806;2022-11-15T14:53:03;11.16;82.89
65378;SHT31;51982;51.042;13.806;2022-11-15T14:55:30;11.16;82.91
65378;SHT31;51982;51.042;13.806;2022-11-15T14:58:05;11.13;82.80
65378;SHT31;51982;51.042;13.806;2022-11-15T15:00:33;11.10;82.77
65378;SHT31;51982;51.042;13.806;2022-11-15T15:02:59;11.05;82.93
65378;SHT31;51982;51.042;13.806;2022-11-15T15:05:32;10.98;82.91
65378;SHT31;51982;51.042;13.806;2022-11-15T15:07:58;10.98;82.95
65378;SHT31;51982;51.042;13.806;2022-11-15T15:10:25;10.95;82.91
65378;SHT31;51982;51.042;13.806;2022-11-15T15:12:51;10.91;82.89
65378;SHT31;51982;51.042;13.806;2022-11-15T15:15:31;10.82;82.87
65378;SHT31;51982;51.042;13.806;2022-11-15T15:17:57;10.81;83.00
65378;SHT31;51982;51.042;13.806;2022-11-15T15:20:25;10.76;82.99
65378;SHT31;51982;51.042;13.806;2022-11-15T15:22:50;10.71;83.11
65378;SHT31;51982;51.042;13.806;2022-11-15T15:25:27;10.65;83.09
65378;SHT31;51982;51.042;13.806;2022-11-15T15:27:53;10.65;83.17
65378;SHT31;51982;51.042;13.806;2022-11-15T15:30:26;10.59;83.18
65378;SHT31;51982;51.042;13.806;2022-11-15T15:32:53;10.55;83.26
65378;SHT31;51982;51.042;13.806;2022-11-15T15:35:19;10.52;83.24
65378;SHT31;51982;51.042;13.806;2022-11-15T15:37:48;10.45;83.30
65378;SHT31;51982;51.042;13.806;2022-11-15T15:40:18;10.44;83.42
65378;SHT31;51982;51.042;13.806;2022-11-15T15:43:03;10.36;83.45
65378;SHT31;51982;51.042;13.806;2022-11-15T15:45:29;10.33;83.59
65378;SHT31;51982;51.042;13.806;2022-11-15T15:47:55;10.34;83.51
65378;SHT31;51982;51.042;13.806;2022-11-15T15:50:26;10.27;83.49
65378;SHT31;51982;51.042;13.806;2022-11-15T15:52:54;10.25;83.52
65378;SHT31;51982;51.042;13.806;2022-11-15T15:55:20;10.22;83.54
65378;SHT31;51982;51.042;13.806;2022-11-15T15:57:46;10.20;83.62
65378;SHT31;51982;51.042;13.806;2022-11-15T16:00:12;10.20;83.62
65378;SHT31;51982;51.042;13.806;2022-11-15T16:02:41;10.16;83.62
65378;SHT31;51982;51.042;13.806;2022-11-15T16:05:07;10.13;83.68
65378;SHT31;51982;51.042;13.806;2022-11-15T16:07:33;10.08;83.72
65378;SHT31;51982;51.042;13.806;2022-11-15T16:09:58;10.06;83.79
65378;SHT31;51982;51.042;13.806;2022-11-15T16:14:53;9.98;83.77
65378;SHT31;51982;51.042;13.806;2022-11-15T16:17:20;9.98;83.86
65378;SHT31;51982;51.042;13.806;2022-11-15T16:19:46;10.00;83.84
65378;SHT31;51982;51.042;13.806;2022-11-15T16:22:12;9.98;83.82
65378;SHT31;51982;51.042;13.806;2022-11-15T16:24:37;9.96;83.76
65378;SHT31;51982;51.042;13.806;2022-11-15T16:27:05;9.91;83.80
65378;SHT31;51982;51.042;13.806;2022-11-15T16:29:30;9.93;83.84
65378;SHT31;51982;51.042;13.806;2022-11-15T16:32:00;9.89;83.91
65378;SHT31;51982;51.042;13.806;2022-11-15T16:34:26;9.82;83.98
65378;SHT31;51982;51.042;13.806;2022-11-15T16:36:54;9.80;84.08
65378;SHT31;51982;51.042;13.806;2022-11-15T16:39:22;9.77;84.05
65378;SHT31;51982;51.042;13.806;2022-11-15T16:41:50;9.77;84.10
65378;SHT31;51982;51.042;13.806;2022-11-15T16:44:15;9.79;84.10
65378;SHT31;51982;51.042;13.806;2022-11-15T16:46:43;9.77;84.05
65378;SHT31;51982;51.042;13.806;2022-11-15T16:49:13;9.75;84.14
65378;SHT31;51982;51.042;13.806;2022-11-15T16:51:39;9.72;84.17
65378;SHT31;51982;51.042;13.806;2022-11-15T16:54:05;9.73;84.14
65378;SHT31;51982;51.042;13.806;2022-11-15T16:56:31;9.69;84.24
65378;SHT31;51982;51.042;13.806;2022-11-15T16:59:00;9.59;84.34
65378;SHT31;51982;51.042;13.806;2022-11-15T17:01:35;9.65;84.29
65378;SHT31;51982;51.042;13.806;2022-11-15T17:04:01;9.59;84.33
65378;SHT31;51982;51.042;13.806;2022-11-15T17:06:37;9.59;84.35
65378;SHT31;51982;51.042;13.806;2022-11-15T17:09:03;9.59;84.38
65378;SHT31;51982;51.042;13.806;2022-11-15T17:11:29;9.57;84.42